Prospect, Connecticut
Current Conditions -  °F | °C
As of 1:53 PM on Thursday 25 Dec 2014 (Local Time) from KMMK Reporting Station
Broken Clouds Broken Clouds  
Wind Chill: 51°   Ceiling: 6500
Heat Index: 51°   Visibility: 10mi
Dew Point: 27°   Wind: 21mph
Humidity: 39%   Direction: 300°WNW
Pressure: 29.74"   Gusts: 30mph
Location:  41.5°N, 72.98°W
Report Text: KMMK 251853Z AUTO 30018G26KT 10SM BKN065 11/M03 A2974 RMK AO2 PK WND 30026/1852 SLP070 T01061028 TSNO
Loading
Personal Weather Stations






























Interactive Weather Map New forecast layout! Learn more

10-Day Weather Forecast

Advertisements
Track Severe Weather on mobile